Time;durP1;ratioP1;P1;durP2;ratioP2;P2;SDS_P1;SDS_P2;PMS_P1;PMS_P2;Temp;Humidity;BMP_temperature;BMP_pressure;BME280_temperature;BME280_humidity;BME280_pressure;Samples;Min_cycle;Max_cycle;Signal;HPM_P1;HPM_P2
2021/07/09 00:01:40;;;;;;;3.25;1.75;;;;;;;29.64;46.55;102069.53;1739790;81;21069;-45
2021/07/09 00:04:08;;;;;;;5.85;2.60;;;;;;;29.62;46.46;102071.00;1757086;80;20990;-47
2021/07/09 00:06:35;;;;;;;5.62;2.08;;;;;;;29.58;46.62;102070.89;1760223;80;20951;-45
2021/07/09 00:09:05;;;;;;;3.00;1.50;;;;;;;29.56;46.72;102069.30;1750322;80;20998;-48
2021/07/09 00:11:36;;;;;;;4.55;2.47;;;;;;;29.53;46.85;102070.91;1669387;85;21041;-48
2021/07/09 00:14:08;;;;;;;6.55;1.92;;;;;;;29.50;47.03;102073.81;1663952;85;21046;-45
2021/07/09 00:16:37;;;;;;;4.85;1.85;;;;;;;29.47;47.15;102077.59;1626079;86;21057;-47
2021/07/09 00:19:05;;;;;;;4.95;2.15;;;;;;;29.44;47.24;102081.02;1622378;86;21045;-47
2021/07/09 00:21:33;;;;;;;6.87;2.12;;;;;;;29.42;47.40;102082.97;1620437;86;21037;-47
2021/07/09 00:24:01;;;;;;;4.47;2.20;;;;;;;29.40;47.56;102091.14;1621993;86;21026;-45
2021/07/09 00:26:30;;;;;;;6.70;2.00;;;;;;;29.38;47.65;102085.53;1618019;86;21573;-49
2021/07/09 00:29:00;;;;;;;4.60;2.00;;;;;;;29.36;47.77;102088.34;1630904;86;21074;-47
2021/07/09 00:31:32;;;;;;;;;;;;;;;29.33;47.89;102081.87;1611791;86;21132;-49
2021/07/09 00:34:01;;;;;;;3.92;1.90;;;;;;;29.35;47.90;102084.42;1616197;87;20140;-46
2021/07/09 00:36:29;;;;;;;4.78;2.27;;;;;;;29.35;47.89;102085.28;1615819;86;21050;-45
2021/07/09 00:38:55;;;;;;;5.35;2.17;;;;;;;29.35;48.01;102091.13;1618236;87;21036;-45
2021/07/09 00:41:22;;;;;;;5.42;2.05;;;;;;;29.36;48.22;102095.53;1609564;87;20986;-49
2021/07/09 00:43:49;;;;;;;2.98;2.50;;;;;;;29.37;48.30;102090.03;1611884;87;21545;-46
2021/07/09 00:46:15;;;;;;;3.67;2.00;;;;;;;29.39;48.40;102088.56;1621986;87;21063;-45
2021/07/09 00:48:44;;;;;;;6.35;2.22;;;;;;;29.40;48.26;102091.63;1607342;87;21074;-52
2021/07/09 00:51:11;;;;;;;4.95;2.37;;;;;;;29.39;48.28;102087.22;1623758;86;21088;-46
2021/07/09 00:53:39;;;;;;;6.05;2.30;;;;;;;29.39;48.25;102088.08;1631911;86;21091;-45
2021/07/09 00:56:05;;;;;;;4.75;2.22;;;;;;;29.36;48.29;102090.16;1625394;86;21038;-50
2021/07/09 00:58:32;;;;;;;2.95;2.08;;;;;;;29.32;48.16;102085.54;1631222;86;21067;-48
2021/07/09 01:00:59;;;;;;;5.90;2.30;;;;;;;29.30;48.31;102083.95;1610972;86;21667;-51
2021/07/09 01:03:25;;;;;;;3.75;2.50;;;;;;;29.30;48.30;102090.17;1608449;87;21061;-48
2021/07/09 01:05:52;;;;;;;4.42;2.55;;;;;;;29.32;48.26;102086.88;1591063;87;21595;-48
2021/07/09 01:08:18;;;;;;;5.65;2.50;;;;;;;29.31;47.95;102085.64;1626321;86;21114;-49
2021/07/09 01:10:48;;;;;;;5.37;3.47;;;;;;;29.28;47.98;102089.92;1618319;87;21145;-47
2021/07/09 01:13:14;;;;;;;6.50;3.20;;;;;;;29.28;47.92;102084.56;1619275;87;21535;-45
2021/07/09 01:15:43;;;;;;;7.10;3.70;;;;;;;29.25;47.98;102080.77;1603620;87;21062;-45
2021/07/09 01:18:10;;;;;;;11.65;7.97;;;;;;;29.19;48.22;102077.23;1640845;86;21030;-45
2021/07/09 01:20:38;;;;;;;9.28;8.00;;;;;;;29.15;48.46;102080.65;1616554;87;21054;-49
2021/07/09 01:23:05;;;;;;;10.23;6.97;;;;;;;29.10;48.74;102083.30;1620830;88;21030;-44
2021/07/09 01:25:32;;;;;;;8.75;6.17;;;;;;;29.05;49.18;102089.02;1594983;87;21497;-48
2021/07/09 01:28:01;;;;;;;10.58;6.42;;;;;;;29.02;49.52;102088.41;1625535;87;21514;-46
2021/07/09 01:30:29;;;;;;;13.08;9.93;;;;;;;28.97;49.77;102089.59;1619067;88;21499;-47
2021/07/09 01:32:56;;;;;;;5.53;3.67;;;;;;;28.95;49.56;102097.41;1599563;88;21037;-49
2021/07/09 01:35:23;;;;;;;5.60;2.67;;;;;;;28.92;49.25;102091.80;1679697;83;21047;-49
2021/07/09 01:38:01;;;;;;;6.20;2.80;;;;;;;28.90;49.24;102094.22;1634187;86;21054;-46
2021/07/09 01:40:28;;;;;;;5.47;3.15;;;;;;;28.87;49.40;102089.11;1637767;86;21054;-49
2021/07/09 01:42:55;;;;;;;8.88;3.30;;;;;;;28.87;49.56;102091.80;1676363;84;20975;-45
2021/07/09 01:45:22;;;;;;;6.20;2.62;;;;;;;28.85;49.79;102101.27;1730022;80;21005;-49
2021/07/09 01:47:49;;;;;;;5.12;2.65;;;;;;;28.84;49.88;102101.39;1755700;80;21037;-48
2021/07/09 01:50:17;;;;;;;6.35;2.58;;;;;;;28.80;49.58;102099.45;1755593;80;21064;-45
2021/07/09 01:52:45;;;;;;;8.20;3.20;;;;;;;28.80;49.36;102103.46;1759623;80;20991;-48
2021/07/09 01:55:13;;;;;;;5.17;3.12;;;;;;;28.77;49.29;102094.81;1775321;80;21012;-47
2021/07/09 01:57:41;;;;;;;7.87;2.92;;;;;;;28.72;49.54;102093.83;1765605;80;21505;-45
2021/07/09 02:00:17;;;;;;;6.33;3.10;;;;;;;28.70;49.53;102093.56;1706469;82;21035;-48
2021/07/09 02:02:44;;;;;;;5.45;2.95;;;;;;;28.64;49.51;102089.55;1686301;84;21010;-45
2021/07/09 02:05:13;;;;;;;7.17;3.40;;;;;;;28.64;49.49;102097.58;1697231;83;21033;-45
2021/07/09 02:07:42;;;;;;;3.77;2.72;;;;;;;28.62;49.67;102099.52;1677988;84;21026;-45
2021/07/09 02:10:10;;;;;;;3.45;2.83;;;;;;;28.60;49.80;102097.45;1689173;84;21037;-49
2021/07/09 02:12:39;;;;;;;5.20;3.00;;;;;;;28.59;49.97;102094.38;1673459;84;20986;-49
2021/07/09 02:15:11;;;;;;;6.78;3.10;;;;;;;28.60;50.08;102095.25;1675067;84;21079;-46
2021/07/09 02:17:39;;;;;;;5.62;3.98;;;;;;;28.59;49.96;102092.18;1631247;87;21065;-47
2021/07/09 02:20:08;;;;;;;5.58;2.95;;;;;;;28.59;49.86;102089.02;1618666;87;21030;-45
2021/07/09 02:22:35;;;;;;;5.22;2.92;;;;;;;28.56;49.72;102094.63;1625746;87;21089;-45
2021/07/09 02:25:05;;;;;;;7.00;3.02;;;;;;;28.53;49.68;102094.81;1619961;87;20986;-46
2021/07/09 02:27:30;;;;;;;4.53;3.20;;;;;;;28.49;49.63;102096.50;1616464;87;21105;-44
2021/07/09 02:29:57;;;;;;;5.95;2.92;;;;;;;28.47;49.73;102095.28;1615248;87;21044;-49
2021/07/09 02:32:24;;;;;;;6.30;2.85;;;;;;;28.50;49.82;102095.03;1608777;87;21030;-46
2021/07/09 02:34:50;;;;;;;7.35;2.98;;;;;;;28.51;50.01;102096.76;1624412;87;21571;-45
2021/07/09 02:37:18;;;;;;;5.17;3.40;;;;;;;28.48;50.01;102094.80;1624373;88;21010;-49
2021/07/09 02:39:45;;;;;;;4.78;3.25;;;;;;;28.47;50.17;102097.09;1623367;87;21131;-46
2021/07/09 02:42:12;;;;;;;9.83;3.33;;;;;;;28.47;50.11;102094.42;1628550;87;21002;-46
2021/07/09 02:44:39;;;;;;;5.50;3.33;;;;;;;28.41;50.09;102093.55;1629442;87;21029;-48
2021/07/09 02:47:06;;;;;;;5.10;3.50;;;;;;;28.38;50.05;102105.33;1621663;87;21022;-49
2021/07/09 02:49:33;;;;;;;5.33;3.67;;;;;;;28.36;50.09;102107.27;1628780;88;21018;-48
2021/07/09 02:51:59;;;;;;;6.25;2.87;;;;;;;28.33;49.92;102108.00;1617092;88;21060;-49
2021/07/09 02:54:26;;;;;;;6.50;3.40;;;;;;;28.30;49.94;102110.89;1613557;87;21009;-45
2021/07/09 02:56:53;;;;;;;4.15;3.60;;;;;;;28.31;49.91;102104.58;1611366;87;21096;-48
2021/07/09 02:59:20;;;;;;;4.30;3.60;;;;;;;28.28;49.94;102111.01;1618185;87;22262;-45
2021/07/09 03:01:47;;;;;;;8.10;3.72;;;;;;;28.22;50.16;102111.47;1621147;88;21025;-49
2021/07/09 03:04:14;;;;;;;6.33;3.60;;;;;;;28.21;50.33;102112.45;1628993;87;21508;-45
2021/07/09 03:06:42;;;;;;;4.20;3.00;;;;;;;28.20;50.43;102105.38;1633405;87;21062;-49
2021/07/09 03:09:09;;;;;;;9.53;3.83;;;;;;;28.17;50.66;102104.28;1629201;87;21058;-49
2021/07/09 03:11:37;;;;;;;6.22;3.65;;;;;;;28.16;50.85;102103.89;1635225;87;21050;-46
2021/07/09 03:14:05;;;;;;;6.42;3.50;;;;;;;28.16;51.08;102106.09;1635173;87;20991;-45
2021/07/09 03:16:32;;;;;;;10.58;4.00;;;;;;;28.15;51.26;102104.87;1625327;87;21032;-49
2021/07/09 03:18:59;;;;;;;8.00;3.52;;;;;;;28.14;51.42;102113.86;1627614;87;20994;-46
2021/07/09 03:21:25;;;;;;;9.28;3.30;;;;;;;28.13;51.72;102116.19;1705480;80;20994;-46
2021/07/09 03:23:53;;;;;;;6.12;3.62;;;;;;;28.14;51.96;102112.52;1763956;80;21042;-45
2021/07/09 03:26:21;;;;;;;10.82;5.22;;;;;;;28.16;52.17;102117.28;1756558;80;21030;-49
2021/07/09 03:28:49;;;;;;;9.08;4.00;;;;;;;28.20;52.33;102117.42;1761192;80;21049;-49
2021/07/09 03:31:16;;;;;;;4.97;3.90;;;;;;;28.22;52.69;102108.79;1757051;80;21493;-49
2021/07/09 03:33:42;;;;;;;8.63;3.72;;;;;;;28.25;52.99;102112.59;1761473;80;21015;-48
2021/07/09 03:36:11;;;;;;;5.65;3.65;;;;;;;28.27;53.20;102108.45;1754205;80;20975;-45
2021/07/09 03:38:38;;;;;;;6.42;3.80;;;;;;;28.30;53.35;102111.75;1767685;80;21018;-48
2021/07/09 03:41:05;;;;;;;4.42;3.20;;;;;;;28.36;53.57;102111.29;1766412;80;20978;-46
2021/07/09 03:43:33;;;;;;;3.95;3.00;;;;;;;28.48;54.03;102107.69;1759601;80;21003;-49
2021/07/09 03:45:59;;;;;;;8.98;4.33;;;;;;;28.67;54.11;102110.72;1771256;80;21002;-46
2021/07/09 03:48:26;;;;;;;8.05;3.27;;;;;;;28.94;53.99;102105.92;1759415;80;20989;-47
2021/07/09 03:50:54;;;;;;;5.10;3.70;;;;;;;29.43;53.37;102107.48;1760210;80;21442;-48
2021/07/09 03:53:21;;;;;;;4.03;3.12;;;;;;;30.07;52.31;102099.96;1751925;81;20944;-44
2021/07/09 03:55:48;;;;;;;4.55;2.90;;;;;;;30.83;50.75;102108.35;1742813;81;21467;-49
2021/07/09 03:58:14;;;;;;;3.60;2.72;;;;;;;31.58;49.03;102104.89;1753581;80;21013;-51
2021/07/09 04:00:41;;;;;;;3.87;2.98;;;;;;;32.28;47.63;102098.91;1770139;80;21126;-46
2021/07/09 04:03:08;;;;;;;3.52;3.05;;;;;;;32.97;46.10;102096.91;1776797;80;20970;-48
2021/07/09 04:05:36;;;;;;;8.75;2.95;;;;;;;33.61;44.64;102091.08;1705962;81;20974;-46
2021/07/09 04:08:03;;;;;;;9.23;2.85;;;;;;;34.13;43.11;102096.74;1739009;80;21103;-49
2021/07/09 04:10:31;;;;;;;8.40;3.50;;;;;;;34.36;42.23;102096.64;1756657;80;20963;-45
2021/07/09 04:12:58;;;;;;;7.55;3.72;;;;;;;34.25;42.11;102091.48;1753690;80;20974;-48
2021/07/09 04:15:25;;;;;;;4.90;3.55;;;;;;;34.00;42.34;102092.24;1713158;82;20979;-45
2021/07/09 04:17:52;;;;;;;3.52;3.20;;;;;;;33.68;42.83;102095.88;1700515;83;21054;-48
2021/07/09 04:20:18;;;;;;;5.03;3.30;;;;;;;33.33;43.50;102099.28;1739506;80;21606;-48
2021/07/09 04:22:45;;;;;;;5.35;3.75;;;;;;;32.96;44.19;102092.48;1763421;80;21152;-49
2021/07/09 04:25:12;;;;;;;10.15;4.10;;;;;;;32.63;44.88;102099.70;1769874;80;20999;-46
2021/07/09 04:27:40;;;;;;;7.00;3.67;;;;;;;32.34;45.69;102106.91;1760877;80;20980;-49
2021/07/09 04:30:09;;;;;;;15.05;4.17;;;;;;;32.06;46.37;102112.64;1763324;80;20942;-45
2021/07/09 04:32:35;;;;;;;7.28;3.42;;;;;;;31.80;46.59;102112.78;1776549;80;21541;-46
2021/07/09 04:35:03;;;;;;;11.35;3.35;;;;;;;31.55;46.96;102114.08;1769534;80;20939;-49
2021/07/09 04:37:30;;;;;;;13.13;3.25;;;;;;;31.33;47.46;102110.21;1768884;80;21443;-45
2021/07/09 04:39:57;;;;;;;12.30;3.75;;;;;;;31.18;47.94;102115.61;1765415;80;20950;-48
2021/07/09 04:42:24;;;;;;;10.93;3.85;;;;;;;31.03;48.33;102113.75;1769167;80;20982;-49
2021/07/09 04:44:50;;;;;;;5.95;3.22;;;;;;;30.90;48.79;102112.23;1773995;80;20975;-45
2021/07/09 04:47:18;;;;;;;6.03;3.25;;;;;;;30.80;49.06;102114.83;1771360;80;20982;-52
2021/07/09 04:49:46;;;;;;;19.45;5.17;;;;;;;30.69;49.13;102114.02;1776466;80;21478;-45
2021/07/09 04:52:12;;;;;;;21.02;4.78;;;;;;;30.57;49.46;102120.44;1751562;80;20954;-49
2021/07/09 04:54:39;;;;;;;14.83;5.35;;;;;;;30.49;49.60;102111.21;1756520;80;21044;-47
2021/07/09 04:57:06;;;;;;;7.42;3.22;;;;;;;30.42;49.48;102107.32;1758068;80;20975;-46
2021/07/09 04:59:32;;;;;;;5.08;3.17;;;;;;;30.37;49.33;102112.24;1762262;80;21525;-49
2021/07/09 05:01:59;;;;;;;5.20;2.98;;;;;;;30.31;49.43;102112.75;1768530;80;20970;-46
2021/07/09 05:04:26;;;;;;;3.25;2.95;;;;;;;30.28;49.54;102114.30;1761742;80;20997;-43
2021/07/09 05:06:53;;;;;;;10.08;3.62;;;;;;;30.23;49.62;102109.79;1761901;80;20983;-47
2021/07/09 05:09:19;;;;;;;5.42;3.72;;;;;;;30.23;49.79;102111.13;1764421;80;20974;-46
2021/07/09 05:11:46;;;;;;;5.33;2.92;;;;;;;30.25;49.92;102113.20;1722657;82;20991;-46
2021/07/09 05:14:14;;;;;;;8.20;3.17;;;;;;;30.29;49.94;102103.97;1764182;80;21022;-46
2021/07/09 05:16:40;;;;;;;6.45;3.05;;;;;;;30.36;50.00;102109.17;1763449;80;20983;-45
2021/07/09 05:19:09;;;;;;;6.47;2.65;;;;;;;30.45;49.73;102108.42;1753832;80;21068;-49
2021/07/09 05:21:37;;;;;;;4.47;2.60;;;;;;;30.54;49.23;102106.28;1747889;80;20966;-50
2021/07/09 05:24:08;;;;;;;4.53;2.67;;;;;;;30.65;49.00;102112.58;1768077;80;20955;-47
2021/07/09 05:26:34;;;;;;;4.70;2.50;;;;;;;30.76;48.94;102119.25;1763246;81;20999;-47
2021/07/09 05:29:00;;;;;;;7.12;2.90;;;;;;;30.83;48.51;102113.20;1762328;80;20991;-49
2021/07/09 05:31:27;;;;;;;9.35;2.65;;;;;;;30.88;48.38;102116.89;1767446;80;20994;-50
2021/07/09 05:33:54;;;;;;;3.92;2.42;;;;;;;30.93;48.15;102122.73;1771706;80;20967;-45
2021/07/09 05:36:21;;;;;;;3.87;2.55;;;;;;;30.97;48.09;102125.52;1764093;80;20931;-47
2021/07/09 05:38:50;;;;;;;6.15;3.05;;;;;;;31.01;48.13;102122.92;1771970;80;21476;-45
2021/07/09 05:41:17;;;;;;;2.50;2.30;;;;;;;31.04;48.14;102126.68;1764979;80;20998;-49
2021/07/09 05:43:44;;;;;;;7.42;2.80;;;;;;;31.10;47.70;102124.80;1769985;80;20990;-46
2021/07/09 05:46:11;;;;;;;6.33;2.77;;;;;;;31.12;47.71;102130.90;1774263;80;20983;-46
2021/07/09 05:48:38;;;;;;;8.40;4.22;;;;;;;31.15;47.60;102132.85;1763757;80;21507;-47
2021/07/09 05:51:06;;;;;;;8.20;3.27;;;;;;;31.21;47.48;102130.97;1746048;80;20967;-46
2021/07/09 05:53:33;;;;;;;5.70;2.85;;;;;;;31.27;47.56;102124.20;1758626;80;20953;-46
2021/07/09 05:56:01;;;;;;;7.90;2.72;;;;;;;31.36;47.38;102131.48;1765493;80;20994;-45
2021/07/09 05:58:28;;;;;;;3.55;2.42;;;;;;;31.37;46.77;102129.13;1764686;80;21052;-49
2021/07/09 06:00:54;;;;;;;7.17;3.47;;;;;;;31.36;46.70;102126.09;1766296;80;21435;-45
2021/07/09 06:03:21;;;;;;;9.50;3.40;;;;;;;31.42;46.47;102130.97;1763172;80;20963;-45
2021/07/09 06:05:48;;;;;;;6.22;2.50;;;;;;;31.48;46.01;102130.42;1771065;80;21458;-49
2021/07/09 06:08:15;;;;;;;10.60;2.80;;;;;;;31.51;45.70;102130.14;1730778;82;21011;-45
2021/07/09 06:10:42;;;;;;;4.60;2.90;;;;;;;31.57;45.93;102132.32;1697869;83;20999;-47
2021/07/09 06:13:09;;;;;;;6.15;2.60;;;;;;;31.64;45.79;102128.08;1745018;81;20951;-45
2021/07/09 06:15:36;;;;;;;5.83;2.42;;;;;;;31.69;45.41;102123.16;1763773;80;21002;-45
2021/07/09 06:18:03;;;;;;;5.83;2.60;;;;;;;31.77;45.55;102120.63;1701914;82;21038;-48
2021/07/09 06:20:29;;;;;;;5.67;2.40;;;;;;;31.87;45.60;102121.50;1710488;83;21002;-49
2021/07/09 06:22:56;;;;;;;5.83;2.55;;;;;;;32.04;44.93;102119.53;1702733;83;21470;-47
2021/07/09 06:25:22;;;;;;;7.25;2.60;;;;;;;32.21;43.90;102124.73;1694906;82;21012;-50
2021/07/09 06:27:49;;;;;;;3.75;2.65;;;;;;;32.31;43.54;102117.98;1695684;83;21112;-50
2021/07/09 06:30:18;;;;;;;5.10;2.92;;;;;;;32.33;43.27;102117.34;1762453;80;21004;-48
2021/07/09 06:32:45;;;;;;;5.62;2.77;;;;;;;32.29;43.50;102119.48;1758323;80;20940;-50
2021/07/09 06:35:12;;;;;;;7.12;2.65;;;;;;;32.24;43.79;102126.27;1753892;80;21470;-46
2021/07/09 06:37:39;;;;;;;15.38;3.37;;;;;;;32.19;44.39;102120.46;1758313;80;20987;-45
2021/07/09 06:40:08;;;;;;;5.33;2.75;;;;;;;32.12;44.39;102114.78;1755482;81;20944;-45
2021/07/09 06:42:35;;;;;;;6.67;3.00;;;;;;;32.05;44.16;102120.35;1747982;80;21002;-46
2021/07/09 06:45:04;;;;;;;3.77;2.62;;;;;;;31.94;43.73;102124.53;1754294;80;20987;-49
2021/07/09 06:47:30;;;;;;;4.42;2.77;;;;;;;31.86;44.47;102125.16;1753411;80;21501;-47
2021/07/09 06:49:57;;;;;;;6.40;2.80;;;;;;;31.83;44.33;102122.77;1748349;80;20979;-46
2021/07/09 06:52:24;;;;;;;4.45;2.80;;;;;;;31.80;44.23;102125.72;1734344;80;21030;-45
2021/07/09 06:54:51;;;;;;;5.12;3.17;;;;;;;31.76;44.20;102121.59;1755465;80;21470;-45
2021/07/09 06:57:18;;;;;;;4.62;3.10;;;;;;;31.71;44.12;102121.17;1739304;80;20970;-45
2021/07/09 06:59:44;;;;;;;5.30;3.30;;;;;;;31.69;44.50;102124.98;1760508;80;20998;-48
2021/07/09 07:04:40;;;;;;;7.00;2.77;;;;;;;31.61;44.28;102122.98;1729244;81;20983;-49
2021/07/09 07:07:07;;;;;;;16.42;4.10;;;;;;;31.58;44.53;102120.55;1721424;81;21563;-46
2021/07/09 07:09:37;;;;;;;48.02;6.65;;;;;;;31.53;44.33;102112.02;1731754;81;21022;-46
2021/07/09 07:12:06;;;;;;;4.80;2.87;;;;;;;31.52;44.41;102113.03;1737719;81;20999;-46
2021/07/09 07:14:35;;;;;;;4.33;3.05;;;;;;;31.50;44.05;102117.69;1745642;81;21142;-46
2021/07/09 07:17:02;;;;;;;5.92;3.17;;;;;;;31.45;44.25;102118.58;1745545;81;21488;-46
2021/07/09 07:19:29;;;;;;;7.83;3.47;;;;;;;31.43;44.20;102120.55;1746405;81;21015;-46
2021/07/09 07:21:58;;;;;;;14.23;5.90;;;;;;;31.47;44.14;102119.30;1742539;81;21003;-46
2021/07/09 07:24:25;;;;;;;11.20;5.22;;;;;;;31.50;44.31;102115.00;1745277;81;20971;-46
2021/07/09 07:26:51;;;;;;;6.95;4.30;;;;;;;31.58;44.19;102113.83;1733548;81;21060;-46
2021/07/09 07:29:19;;;;;;;8.35;3.55;;;;;;;31.66;44.28;102116.69;1740713;81;21058;-50
2021/07/09 07:31:46;;;;;;;5.28;3.00;;;;;;;31.74;43.78;102115.50;1735860;81;21041;-49
2021/07/09 07:34:12;;;;;;;6.05;3.30;;;;;;;31.82;43.89;102117.53;1730461;82;21031;-46
2021/07/09 07:36:39;;;;;;;5.17;3.00;;;;;;;31.86;43.52;102111.70;1735687;81;21046;-46
2021/07/09 07:39:05;;;;;;;6.60;3.40;;;;;;;31.87;43.92;102110.73;1735663;81;21532;-45
2021/07/09 07:41:33;;;;;;;8.10;3.25;;;;;;;31.90;43.68;102113.65;1730438;81;21059;-47
2021/07/09 07:44:00;;;;;;;7.53;3.60;;;;;;;31.91;43.47;102106.77;1739393;81;20987;-45
2021/07/09 07:46:27;;;;;;;6.97;3.08;;;;;;;31.94;43.35;102109.20;1739575;81;20982;-47
2021/07/09 07:48:55;;;;;;;11.78;3.92;;;;;;;31.97;43.54;102108.94;1728397;81;21474;-47
2021/07/09 07:51:23;;;;;;;4.35;3.33;;;;;;;31.98;43.44;102109.28;1737075;81;20976;-44
2021/07/09 07:53:50;;;;;;;6.83;3.98;;;;;;;32.00;43.00;102108.67;1748452;81;20974;-46
2021/07/09 07:56:17;;;;;;;5.00;3.27;;;;;;;32.01;43.15;102107.67;1741339;81;21007;-45
2021/07/09 07:58:44;;;;;;;5.90;3.20;;;;;;;32.03;42.91;102111.08;1740878;81;21085;-48
2021/07/09 08:01:11;;;;;;;7.67;3.75;;;;;;;32.03;42.78;102106.17;1719701;81;20951;-46
2021/07/09 08:03:40;;;;;;;5.05;2.98;;;;;;;32.02;42.95;102118.81;1748298;80;20954;-49
2021/07/09 08:06:07;;;;;;;7.37;3.40;;;;;;;32.04;43.08;102110.10;1733925;80;21012;-46
2021/07/09 08:08:34;;;;;;;6.67;3.90;;;;;;;32.05;42.95;102116.31;1752558;80;20963;-45
2021/07/09 08:11:02;;;;;;;4.70;2.90;;;;;;;32.06;42.86;102110.81;1712820;81;21465;-47
2021/07/09 08:13:29;;;;;;;5.03;3.35;;;;;;;32.09;42.90;102112.35;1742601;81;20974;-46
2021/07/09 08:15:56;;;;;;;4.53;3.05;;;;;;;32.12;42.84;102111.23;1721721;81;20994;-46
2021/07/09 08:18:23;;;;;;;8.48;3.90;;;;;;;32.13;42.89;102110.25;1735619;81;21080;-46
2021/07/09 08:20:50;;;;;;;10.25;3.62;;;;;;;32.14;42.46;102117.32;1718096;81;20990;-45
2021/07/09 08:23:17;;;;;;;8.00;3.08;;;;;;;32.11;41.96;102115.75;1738224;81;21062;-46
2021/07/09 08:25:45;;;;;;;6.25;3.10;;;;;;;32.09;42.31;102119.08;1733497;81;20982;-46
2021/07/09 08:28:14;;;;;;;5.95;3.08;;;;;;;32.09;42.38;102118.59;1730398;81;21017;-49
2021/07/09 08:30:41;;;;;;;5.60;2.92;;;;;;;32.11;42.20;102113.58;1728161;82;21011;-46
2021/07/09 08:33:08;;;;;;;6.53;3.33;;;;;;;32.14;41.95;102111.94;1751146;81;21026;-46
2021/07/09 08:35:35;;;;;;;14.05;3.40;;;;;;;32.14;41.69;102111.45;1755204;80;21450;-48
2021/07/09 08:38:02;;;;;;;3.72;3.08;;;;;;;32.15;41.52;102112.31;1738357;80;20959;-48
2021/07/09 08:40:28;;;;;;;14.53;3.55;;;;;;;32.16;41.03;102109.95;1756049;80;20978;-46
2021/07/09 08:42:55;;;;;;;6.62;2.90;;;;;;;32.18;40.77;102109.31;1758820;80;21042;-45
2021/07/09 08:45:22;;;;;;;4.87;3.17;;;;;;;32.19;40.41;102104.30;1754717;80;20974;-47
2021/07/09 08:47:48;;;;;;;5.78;3.20;;;;;;;32.20;40.73;102096.07;1750599;80;21466;-44
2021/07/09 08:50:15;;;;;;;3.27;2.50;;;;;;;32.25;40.46;102101.05;1754512;81;20967;-51
2021/07/09 08:52:41;;;;;;;6.40;2.95;;;;;;;32.30;40.32;102094.72;1756252;80;21474;-49
2021/07/09 08:55:11;;;;;;;5.28;2.52;;;;;;;32.32;40.17;102088.20;1757420;80;20931;-48
2021/07/09 08:57:42;;;;;;;3.80;2.80;;;;;;;32.34;40.12;102089.41;1752385;80;20927;-48
2021/07/09 09:00:40;;;;;;;7.77;3.20;;;;;;;32.36;39.27;102086.92;1758516;80;20927;-53
2021/07/09 09:03:19;;;;;;;8.55;2.72;;;;;;;32.39;39.40;102081.76;1737014;81;21388;-50
2021/07/09 09:05:47;;;;;;;5.95;2.60;;;;;;;32.43;38.59;102073.75;1751842;80;20924;-49
2021/07/09 09:08:16;;;;;;;6.05;2.72;;;;;;;32.47;37.97;102077.89;1733061;80;21043;-48
2021/07/09 09:10:48;;;;;;;8.25;3.80;;;;;;;32.51;38.17;102081.99;1745581;80;20978;-48
2021/07/09 09:13:31;;;;;;;4.05;2.75;;;;;;;32.41;38.81;102086.02;1706924;83;20990;-48
2021/07/09 09:16:12;;;;;;;6.22;3.47;;;;;;;32.45;38.19;102081.19;1751065;80;21458;-50
2021/07/09 09:18:49;;;;;;;5.87;3.17;;;;;;;32.48;37.45;102083.64;1654341;85;21003;-49
2021/07/09 09:21:23;;;;;;;9.80;3.77;;;;;;;32.50;37.78;102081.66;1712482;83;21005;-51
2021/07/09 09:23:54;;;;;;;5.62;2.85;;;;;;;32.53;37.76;102085.39;1688803;83;20995;-51
2021/07/09 09:26:49;;;;;;;6.12;2.72;;;;;;;32.55;37.76;102086.10;1676794;84;21545;-52
2021/07/09 09:29:35;;;;;;;7.37;3.75;;;;;;;32.57;38.37;102082.77;1690726;83;20995;-47
2021/07/09 09:32:06;;;;;;;3.50;3.02;;;;;;;32.53;39.19;102084.05;1707778;83;21514;-50
2021/07/09 09:34:47;;;;;;;6.78;3.10;;;;;;;32.49;40.13;102083.98;1703341;83;20969;-50
2021/07/09 09:37:19;;;;;;;6.30;3.90;;;;;;;32.47;41.19;102076.54;1700748;83;21425;-49
2021/07/09 09:39:47;;;;;;;4.12;2.92;;;;;;;32.50;41.10;102076.27;1712624;83;21199;-48
2021/07/09 09:42:23;;;;;;;6.00;3.25;;;;;;;32.53;40.26;102077.31;1703510;83;21577;-50
2021/07/09 09:44:54;;;;;;;5.85;3.87;;;;;;;32.55;39.63;102086.10;1694040;83;21046;-49
2021/07/09 09:47:22;;;;;;;6.72;2.85;;;;;;;32.58;39.41;102081.79;1719740;83;21485;-48
2021/07/09 09:49:57;;;;;;;6.90;3.55;;;;;;;32.59;38.81;102082.13;1702563;83;20958;-49
2021/07/09 09:52:44;;;;;;;5.50;2.50;;;;;;;32.51;37.73;102080.64;1706289;83;20986;-51
2021/07/09 09:55:14;;;;;;;9.48;3.22;;;;;;;32.51;36.84;102080.64;1708291;83;20962;-49
2021/07/09 09:57:43;;;;;;;6.87;3.60;;;;;;;32.51;36.45;102076.11;1704852;83;20984;-50
2021/07/09 10:00:18;;;;;;;5.50;2.70;;;;;;;32.55;36.11;102077.53;1692609;83;21043;-49
2021/07/09 10:02:45;;;;;;;5.15;2.60;;;;;;;32.58;34.48;102080.44;1695575;84;21389;-50
2021/07/09 10:05:12;;;;;;;3.62;2.20;;;;;;;32.62;33.81;102077.81;1691302;83;20938;-47
2021/07/09 10:07:38;;;;;;;6.87;2.42;;;;;;;32.75;33.48;102079.69;1700986;83;20981;-50
2021/07/09 10:10:07;;;;;;;5.75;3.02;;;;;;;32.75;33.09;102072.94;1714501;83;20970;-52
2021/07/09 10:12:33;;;;;;;3.10;2.37;;;;;;;32.81;32.78;102068.31;1707203;83;21025;-51
2021/07/09 10:15:00;;;;;;;4.65;2.52;;;;;;;32.90;33.01;102064.76;1728615;81;21492;-49
2021/07/09 10:17:29;;;;;;;5.25;2.42;;;;;;;32.95;32.91;102070.58;1739112;80;20983;-50
2021/07/09 10:19:55;;;;;;;2.62;2.30;;;;;;;33.04;32.44;102071.06;1754588;80;20978;-49
2021/07/09 10:22:22;;;;;;;3.70;2.58;;;;;;;33.09;32.63;102072.83;1726222;82;21493;-52
2021/07/09 10:24:51;;;;;;;8.63;2.87;;;;;;;33.19;32.08;102064.20;1744091;80;20970;-50
2021/07/09 10:27:20;;;;;;;2.72;2.33;;;;;;;33.25;32.03;102069.00;1752956;80;20944;-50
2021/07/09 10:29:48;;;;;;;3.92;2.67;;;;;;;33.33;31.87;102063.71;1751790;80;21106;-49
2021/07/09 10:32:40;;;;;;;4.08;2.20;;;;;;;33.39;31.41;102061.77;1761588;80;21014;-49
2021/07/09 10:35:13;;;;;;;4.97;2.25;;;;;;;33.43;30.98;102060.46;1761315;80;20986;-52
2021/07/09 10:37:40;;;;;;;5.50;2.10;;;;;;;33.49;30.52;102061.24;1660976;85;20996;-51
2021/07/09 10:40:19;;;;;;;3.33;1.92;;;;;;;33.52;30.22;102057.41;1632163;84;21535;-48
2021/07/09 10:42:47;;;;;;;4.90;2.33;;;;;;;33.52;29.83;102055.56;1681871;84;20992;-48
2021/07/09 10:45:22;;;;;;;4.33;2.40;;;;;;;33.56;30.10;102058.80;1661388;83;21008;-50
2021/07/09 10:47:56;;;;;;;2.15;1.90;;;;;;;33.58;29.73;102052.26;1654253;85;21036;-48
2021/07/09 10:50:48;;;;;;;2.00;1.90;;;;;;;33.60;28.81;102050.25;1677918;84;21119;-48
2021/07/09 10:53:22;;;;;;;4.80;2.10;;;;;;;33.67;28.08;102048.30;1670076;84;21038;-48
2021/07/09 10:56:00;;;;;;;7.37;2.17;;;;;;;33.72;28.45;102044.66;1679023;84;20980;-48
2021/07/09 10:58:33;;;;;;;4.60;2.00;;;;;;;33.75;28.33;102047.03;1670700;84;21565;-49
2021/07/09 11:01:22;;;;;;;2.30;2.10;;;;;;;33.79;27.79;102043.02;1684782;84;21466;-47
2021/07/09 11:04:08;;;;;;;2.60;1.98;;;;;;;33.81;28.05;102027.52;1616185;88;21039;-51
2021/07/09 11:06:38;;;;;;;4.15;2.15;;;;;;;33.84;27.83;102022.66;1591712;88;21507;-50
2021/07/09 11:09:06;;;;;;;2.98;2.50;;;;;;;33.87;27.54;102019.66;1592437;87;21119;-49
2021/07/09 11:11:51;;;;;;;4.92;2.47;;;;;;;33.91;28.12;102021.05;1587212;89;21010;-50
2021/07/09 11:14:35;;;;;;;10.03;2.70;;;;;;;33.97;27.52;102023.13;1620984;85;20988;-50
2021/07/09 11:17:17;;;;;;;5.58;3.10;;;;;;;34.04;27.76;102020.70;1665192;84;21570;-50
2021/07/09 11:19:44;;;;;;;10.40;4.85;;;;;;;34.09;27.44;102020.58;1621528;87;21604;-49
2021/07/09 11:22:12;;;;;;;3.67;3.37;;;;;;;34.12;27.13;102019.42;1616610;86;21109;-49
2021/07/09 11:24:56;;;;;;;3.90;2.67;;;;;;;34.15;27.32;102017.77;1602710;87;21560;-52
2021/07/09 11:27:25;;;;;;;3.75;2.40;;;;;;;34.20;27.12;102020.84;1572632;89;20993;-49
2021/07/09 11:29:56;;;;;;;5.50;2.20;;;;;;;34.23;26.09;102015.97;1609327;88;21070;-47
2021/07/09 11:32:21;;;;;;;2.58;2.10;;;;;;;34.25;26.47;102013.13;1587688;89;21068;-48
2021/07/09 11:34:53;;;;;;;2.92;2.40;;;;;;;34.26;26.04;102013.45;1604223;88;21027;-50